Aérodrome :
LOGIN :

S'inscrire | Disclaimer

   EN    FR    IT 

 










Légende :    VFR   VFR Marginal   IFR   IFR Intensif   IFR Très Intensif
Visi : 
Plafond : 
>= 8 km
>= 3000ft
5 à 8 km
1000 à 3000 ft
1500m à 5 km
500 à 1000 ft
800 à 1500m
200 à 500 ft
< 800m
< 200 ft
Symboles :   Orages  Brouillard  Fortes neiges  Fortes précipitations  Vent > 20 kt
SIGMETs :   Divers  Orages  Givrage  Turbulence  Onde Orograph.  Cendres Volcan.







- Altitude de l'aérodrome : 274 ft
- Code IATA : PUY


LDPL - Pula

DERNIER METAR :
  • 170430Z 07019KT CAVOK 23/14 Q1014 NOSIG

METARs EXPIRÉS :
  • 170400Z 07015KT CAVOK 23/14 Q1014 NOSIG
  • 170330Z 06015KT CAVOK 23/14 Q1014 NOSIG
  • 170300Z 06013KT CAVOK 23/14 Q1014 NOSIG
  • 170230Z 06012KT CAVOK 24/13 Q1013 NOSIG
  • 170200Z 05010KT CAVOK 23/14 Q1013 NOSIG

TAF TAF LDPL
Valide du 17 à 00h jusqu'au 18 à 00h UTC


162325Z 1700/1800 07015KT CAVOK TX28/1713Z TN21/1703Z
PROB40
TEMPO 1700/1704 07018G30KT
BECMG 1716/1718 07008KT
Pas de NOTAMs connus pour ce terrain.



MET'MAP, la Météo Aéronautique d'un coup d'oeil ! - Copyright ORBIFLY Décembre 2007 - Disclaimer

ORBIFLY MET'MAP TEAM :

Programmation & Développement : Alexandra Zaïnal
Conception & Développement : Baudouin d'Aumeries
Co-Programmation & Développement : Marc-Olivier Méhu
Soutien technique & logistique : Manuel Goepfert

Contact : metmap@orbifly.com




SOURCES & CREDITS :

   NOAA